createdAt,value
2022-10-16T00:01:47.369Z,96208.63
2022-10-16T00:04:16.154Z,96196.53
2022-10-16T00:06:44.748Z,96202.94
2022-10-16T00:09:13.407Z,96212.94
2022-10-16T00:11:43.809Z,96208.63
2022-10-16T00:14:16.208Z,96203.72
2022-10-16T00:16:47.338Z,96205.63
2022-10-16T00:19:16.996Z,96197.59
2022-10-16T00:21:47.461Z,96203.84
2022-10-16T00:24:16.036Z,96199.66
2022-10-16T00:26:45.708Z,96191.97
2022-10-16T00:29:14.752Z,96132.91
2022-10-16T00:31:43.900Z,96207.75
2022-10-16T00:34:15.596Z,96208.22
2022-10-16T00:36:44.586Z,96196.09
2022-10-16T00:39:13.416Z,96204.63
2022-10-16T00:41:41.555Z,96211.53
2022-10-16T00:44:47.873Z,96223.94
2022-10-16T00:47:21.834Z,96223.50
2022-10-16T00:49:53.798Z,96223.63
2022-10-16T00:52:22.768Z,96222.25
2022-10-16T00:54:52.457Z,96230.97
2022-10-16T00:57:21.479Z,96232.84
2022-10-16T00:59:50.533Z,96236.78
2022-10-16T01:02:23.017Z,96221.16
2022-10-16T01:04:55.260Z,96231.22
2022-10-16T01:07:33.493Z,96235.16
2022-10-16T01:10:10.221Z,96233.66
2022-10-16T01:12:47.060Z,96238.28
2022-10-16T01:15:21.273Z,96227.69
2022-10-16T01:17:54.348Z,96235.97
2022-10-16T01:20:28.624Z,96235.84
2022-10-16T01:23:13.181Z,96242.97
2022-10-16T01:26:27.564Z,96223.06
2022-10-16T01:29:00.759Z,96237.97
2022-10-16T01:31:33.767Z,96238.38
2022-10-16T01:34:06.201Z,96178.72
2022-10-16T01:36:39.923Z,96237.34
2022-10-16T01:39:09.597Z,96244.81
2022-10-16T01:41:41.852Z,96227.56
2022-10-16T01:44:14.287Z,96222.38
2022-10-16T01:46:45.776Z,96247.69
2022-10-16T01:49:16.364Z,96241.06
2022-10-16T01:51:47.088Z,96236.13
2022-10-16T01:54:16.627Z,96242.09
2022-10-16T01:56:45.844Z,96238.63
2022-10-16T01:59:17.210Z,96223.25
2022-10-16T02:01:51.201Z,96232.09
2022-10-16T02:04:23.174Z,96241.22
2022-10-16T02:06:52.221Z,96244.50
2022-10-16T02:09:21.148Z,96247.63
2022-10-16T02:11:51.813Z,96236.16
2022-10-16T02:14:23.359Z,96251.56
2022-10-16T02:16:52.906Z,96173.00
2022-10-16T02:19:23.176Z,96235.84
2022-10-16T02:21:53.927Z,96223.81
2022-10-16T02:24:27.292Z,96241.84
2022-10-16T02:27:01.876Z,96238.72
2022-10-16T02:29:33.381Z,96258.66
2022-10-16T02:32:06.248Z,96245.00
2022-10-16T02:34:35.544Z,96262.63
2022-10-16T02:37:05.527Z,96265.06
2022-10-16T02:39:36.656Z,96275.34
2022-10-16T02:42:05.838Z,96170.00
2022-10-16T02:44:35.721Z,96279.97
2022-10-16T02:47:04.016Z,96275.78
2022-10-16T02:49:32.643Z,96271.06
2022-10-16T02:52:01.066Z,96276.22
2022-10-16T02:54:29.262Z,96279.47
2022-10-16T02:56:58.083Z,96284.22
2022-10-16T02:59:26.452Z,96272.47
2022-10-16T03:01:56.759Z,96284.34
2022-10-16T03:04:25.784Z,96282.97
2022-10-16T03:06:54.584Z,96289.06
2022-10-16T03:09:23.383Z,96288.38
2022-10-16T03:11:51.953Z,96289.44
2022-10-16T03:14:20.497Z,96279.66
2022-10-16T03:16:49.188Z,96290.75
2022-10-16T03:19:20.720Z,96274.06
2022-10-16T03:21:49.461Z,96279.34
2022-10-16T03:24:17.952Z,96269.19
2022-10-16T03:26:46.781Z,96267.09
2022-10-16T03:29:15.497Z,96277.03
2022-10-16T03:31:44.370Z,96279.47
2022-10-16T03:34:12.725Z,96281.47
2022-10-16T03:36:42.676Z,96285.66
2022-10-16T03:39:11.546Z,96287.31
2022-10-16T03:41:40.246Z,96281.47
2022-10-16T03:44:09.235Z,96284.97
2022-10-16T03:46:38.172Z,96275.44
2022-10-16T03:49:09.635Z,96277.59
2022-10-16T03:51:38.415Z,96285.28
2022-10-16T03:54:08.485Z,96292.88
2022-10-16T03:56:37.636Z,96300.25
2022-10-16T03:59:06.189Z,96296.03
2022-10-16T04:01:35.216Z,96302.13
2022-10-16T04:04:04.367Z,96303.53
2022-10-16T04:06:33.269Z,96299.38
2022-10-16T04:09:02.492Z,96303.00
2022-10-16T04:11:33.095Z,96221.16
2022-10-16T04:14:02.707Z,96310.63
2022-10-16T04:16:31.587Z,96309.09
2022-10-16T04:19:00.426Z,96315.28
2022-10-16T04:21:29.411Z,96304.00
2022-10-16T04:23:57.930Z,96317.66
2022-10-16T04:26:27.018Z,96320.88
2022-10-16T04:28:57.136Z,96316.47
2022-10-16T04:31:25.649Z,96257.72
2022-10-16T04:33:54.418Z,96322.88
2022-10-16T04:36:25.441Z,96328.81
2022-10-16T04:38:57.050Z,96322.16
2022-10-16T04:41:26.257Z,96332.22
2022-10-16T04:43:57.079Z,96239.59
2022-10-16T04:46:26.036Z,96333.84
2022-10-16T04:48:55.153Z,96338.19
2022-10-16T04:51:23.519Z,96335.63
2022-10-16T04:53:52.616Z,96341.78
2022-10-16T04:56:22.243Z,96342.63
2022-10-16T04:58:51.044Z,96337.94
2022-10-16T05:01:21.430Z,96327.22
2022-10-16T05:03:49.920Z,96332.94
2022-10-16T05:06:18.487Z,96335.03
2022-10-16T05:08:47.277Z,96332.59
2022-10-16T05:11:15.941Z,96269.97
2022-10-16T05:13:44.393Z,96340.03
2022-10-16T05:16:12.990Z,96336.09
2022-10-16T05:18:43.353Z,96341.31
2022-10-16T05:21:11.785Z,96346.47
2022-10-16T05:23:40.224Z,96340.28
2022-10-16T05:26:08.604Z,96344.94
2022-10-16T05:28:37.347Z,96342.50
2022-10-16T05:31:07.898Z,96347.97
2022-10-16T05:33:36.734Z,96350.97
2022-10-16T05:36:08.717Z,96351.09
2022-10-16T05:38:37.865Z,96354.25
2022-10-16T05:41:07.630Z,96353.66
2022-10-16T05:43:36.433Z,96359.47
2022-10-16T05:46:07.036Z,96362.88
2022-10-16T05:48:35.379Z,96366.13
2022-10-16T05:51:08.739Z,96374.88
2022-10-16T05:53:38.842Z,96367.53
2022-10-16T05:56:09.033Z,96382.38
2022-10-16T05:58:38.721Z,96365.56
2022-10-16T06:01:09.326Z,96374.16
2022-10-16T06:03:38.967Z,96356.69
2022-10-16T06:06:14.550Z,96373.13
2022-10-16T06:08:44.105Z,96384.31
2022-10-16T06:11:14.804Z,96312.41
2022-10-16T06:13:43.962Z,96388.25
2022-10-16T06:16:13.936Z,96388.88
2022-10-16T06:18:43.434Z,96401.59
2022-10-16T06:21:16.318Z,96403.81
2022-10-16T06:23:47.120Z,96408.50
2022-10-16T06:26:17.644Z,96404.75
2022-10-16T06:28:46.766Z,96408.13
2022-10-16T06:31:17.044Z,96415.00
2022-10-16T06:33:46.919Z,96426.31
2022-10-16T06:36:19.470Z,96425.59
2022-10-16T06:38:48.072Z,96423.94
2022-10-16T06:41:18.578Z,96425.75
2022-10-16T06:43:47.821Z,96432.63
2022-10-16T06:46:18.039Z,96436.72
2022-10-16T06:48:46.740Z,96436.56
2022-10-16T06:51:18.347Z,96438.53
2022-10-16T06:54:03.046Z,96445.38
2022-10-16T06:56:35.577Z,96448.13
2022-10-16T06:59:05.828Z,96444.00
2022-10-16T07:01:35.637Z,96449.09
2022-10-16T07:04:25.628Z,96448.31
2022-10-16T07:06:57.944Z,96446.00
2022-10-16T07:09:26.981Z,96445.53
2022-10-16T07:11:55.726Z,96437.56
2022-10-16T07:14:24.648Z,96452.41
2022-10-16T07:16:53.418Z,96448.66
2022-10-16T07:19:21.966Z,96451.47
2022-10-16T07:21:50.733Z,96452.59
2022-10-16T07:24:20.655Z,96456.41
2022-10-16T07:26:49.434Z,96454.94
2022-10-16T07:29:19.979Z,96444.53
2022-10-16T07:31:48.784Z,96456.75
2022-10-16T07:34:18.564Z,96467.63
2022-10-16T07:36:50.230Z,96453.78
2022-10-16T07:39:21.329Z,96458.66
2022-10-16T07:41:51.294Z,96455.94
2022-10-16T07:44:22.601Z,96451.97
2022-10-16T07:46:52.190Z,96448.25
2022-10-16T07:49:21.748Z,96452.44
2022-10-16T07:51:50.849Z,96454.31
2022-10-16T07:54:21.459Z,96448.00
2022-10-16T07:56:50.559Z,96453.63
2022-10-16T07:59:19.206Z,96453.16
2022-10-16T08:01:48.239Z,96454.72
2022-10-16T08:04:18.774Z,96452.84
2022-10-16T08:06:49.125Z,96458.06
2022-10-16T08:09:18.890Z,96452.78
2022-10-16T08:11:49.902Z,96456.06
2022-10-16T08:14:19.045Z,96431.19
2022-10-16T08:16:47.522Z,96466.44
2022-10-16T08:19:17.132Z,96466.75
2022-10-16T08:21:49.332Z,96458.09
2022-10-16T08:24:18.616Z,96455.63
2022-10-16T08:26:48.771Z,96465.63
2022-10-16T08:29:18.373Z,96462.34
2022-10-16T08:31:48.140Z,96461.75
2022-10-16T08:34:16.939Z,96388.00
2022-10-16T08:36:56.280Z,96461.03
2022-10-16T08:39:31.623Z,96438.97
2022-10-16T08:42:22.638Z,96453.31
2022-10-16T08:45:25.320Z,96463.69
2022-10-16T08:48:03.230Z,96460.44
2022-10-16T08:50:38.000Z,96473.38
2022-10-16T08:53:08.559Z,96447.50
2022-10-16T08:55:44.231Z,96474.81
2022-10-16T08:58:17.076Z,96467.63
2022-10-16T09:00:48.613Z,96476.69
2022-10-16T09:03:25.437Z,96454.78
2022-10-16T09:06:11.069Z,96470.16
2022-10-16T09:08:55.277Z,96473.25
2022-10-16T09:11:28.873Z,96472.66
2022-10-16T09:14:04.320Z,96485.72
2022-10-16T09:16:36.165Z,96482.59
2022-10-16T09:19:12.437Z,96486.50
2022-10-16T09:21:45.598Z,96483.72
2022-10-16T09:24:17.438Z,96489.22
2022-10-16T09:26:47.521Z,96483.13
2022-10-16T09:29:21.334Z,96479.94
2022-10-16T09:31:50.328Z,96478.69
2022-10-16T09:34:26.392Z,96481.63
2022-10-16T09:36:55.236Z,96469.50
2022-10-16T09:39:24.130Z,96480.91
2022-10-16T09:41:53.507Z,96484.66
2022-10-16T09:44:25.830Z,96419.03
2022-10-16T09:47:03.534Z,96487.50
2022-10-16T09:49:31.550Z,96493.03
2022-10-16T09:52:06.482Z,96497.72
2022-10-16T09:54:34.549Z,96494.13
2022-10-16T09:57:09.825Z,96489.66
2022-10-16T09:59:48.416Z,96503.91
2022-10-16T10:02:18.492Z,96505.41
2022-10-16T10:04:51.950Z,96504.22
2022-10-16T10:07:23.489Z,96508.53
2022-10-16T10:09:52.900Z,96502.66
2022-10-16T10:12:26.806Z,96457.44
2022-10-16T10:14:58.733Z,96505.72
2022-10-16T10:17:28.374Z,96507.63
2022-10-16T10:19:57.611Z,96511.31
2022-10-16T10:22:33.979Z,96500.50
2022-10-16T10:25:14.508Z,96449.31
2022-10-16T10:27:50.121Z,96520.19
2022-10-16T10:30:23.161Z,96514.91
2022-10-16T10:33:10.837Z,96507.16
2022-10-16T10:35:46.532Z,96507.16
2022-10-16T10:38:29.675Z,96498.16
2022-10-16T10:41:11.443Z,96503.78
2022-10-16T10:43:50.353Z,96503.94
2022-10-16T10:46:25.595Z,96427.16
2022-10-16T10:49:14.096Z,96500.72
2022-10-16T10:51:48.097Z,96506.03
2022-10-16T10:54:19.684Z,96494.75
2022-10-16T10:56:53.315Z,96499.97
2022-10-16T10:59:38.027Z,96504.31
2022-10-16T11:02:16.424Z,96500.84
2022-10-16T11:04:59.223Z,96424.13
2022-10-16T11:07:30.816Z,96489.13
2022-10-16T11:10:02.510Z,96485.94
2022-10-16T11:12:33.985Z,96476.81
2022-10-16T11:15:05.169Z,96477.69
2022-10-16T11:17:38.536Z,96468.16
2022-10-16T11:20:15.673Z,96471.84
2022-10-16T11:22:47.536Z,96476.28
2022-10-16T11:25:18.945Z,96462.34
2022-10-16T11:27:51.540Z,96472.59
2022-10-16T11:30:23.056Z,96475.50
2022-10-16T11:32:59.428Z,96469.72
2022-10-16T11:35:34.461Z,96475.69
2022-10-16T11:38:05.265Z,96474.47
2022-10-16T11:40:34.819Z,96467.44
2022-10-16T11:45:44.210Z,96464.88
2022-10-16T11:48:23.184Z,96475.66
2022-10-16T11:50:54.181Z,96479.19
2022-10-16T11:53:31.197Z,96459.78
2022-10-16T11:55:59.618Z,96474.69
2022-10-16T11:58:33.626Z,96481.78
2022-10-16T12:01:08.507Z,96485.22
2022-10-16T12:03:46.938Z,96470.22
2022-10-16T12:06:26.188Z,96427.94
2022-10-16T12:08:55.118Z,96310.84
2022-10-16T12:11:27.057Z,96467.56
2022-10-16T12:14:07.619Z,96459.72
2022-10-16T12:16:35.850Z,96476.13
2022-10-16T12:19:15.665Z,96491.75
2022-10-16T12:21:45.958Z,96487.94
2022-10-16T12:24:24.582Z,96489.63
2022-10-16T12:26:54.657Z,96491.25
2022-10-16T12:29:35.653Z,96497.63
2022-10-16T12:32:06.596Z,96488.09
2022-10-16T12:34:41.318Z,96486.94
2022-10-16T12:37:16.403Z,96482.97
2022-10-16T12:39:44.688Z,96477.78
2022-10-16T12:42:34.483Z,96486.66
2022-10-16T12:45:03.560Z,96501.91
2022-10-16T12:47:51.263Z,96499.38
2022-10-16T12:50:29.908Z,96499.41
2022-10-16T12:52:58.221Z,96496.25
2022-10-16T12:55:28.549Z,96500.31
2022-10-16T12:58:11.882Z,96490.31
2022-10-16T13:00:46.630Z,96495.63
2022-10-16T13:03:39.134Z,96489.94
2022-10-16T13:06:25.492Z,96485.03
2022-10-16T13:09:09.252Z,96493.03
2022-10-16T13:11:58.710Z,96486.91
2022-10-16T13:14:51.040Z,96463.50
2022-10-16T13:17:24.989Z,96496.38
2022-10-16T13:20:04.762Z,96497.34
2022-10-16T13:22:38.209Z,96491.19
2022-10-16T13:25:19.958Z,96501.22
2022-10-16T13:27:54.838Z,96482.66
2022-10-16T13:30:28.188Z,96497.88
2022-10-16T13:33:03.543Z,96502.34
2022-10-16T13:35:33.390Z,96488.41
2022-10-16T13:38:15.844Z,96501.72
2022-10-16T13:40:55.791Z,96501.34
2022-10-16T13:43:29.522Z,96502.84
2022-10-16T13:46:02.394Z,96513.94
2022-10-16T13:48:31.333Z,96473.22
2022-10-16T13:51:04.181Z,96510.00
2022-10-16T13:53:36.461Z,96507.81
2022-10-16T13:56:06.977Z,96515.38
2022-10-16T13:58:35.612Z,96517.50
2022-10-16T14:01:06.577Z,96522.84
2022-10-16T14:03:37.009Z,96516.09
2022-10-16T14:06:10.242Z,96522.19
2022-10-16T14:08:45.660Z,96525.69
2022-10-16T14:11:16.342Z,96530.06
2022-10-16T14:13:48.524Z,96463.72
2022-10-16T14:16:20.826Z,96528.25
2022-10-16T14:18:56.272Z,96523.50
2022-10-16T14:21:25.689Z,96532.59
2022-10-16T14:23:56.757Z,96527.34
2022-10-16T14:26:26.390Z,96537.06
2022-10-16T14:29:11.460Z,96524.53
2022-10-16T14:31:41.106Z,96534.97
2022-10-16T14:34:29.234Z,96530.91
2022-10-16T14:36:58.501Z,96538.06
2022-10-16T14:39:28.890Z,96530.88
2022-10-16T14:41:59.475Z,96514.22
2022-10-16T14:44:34.704Z,96513.19
2022-10-16T14:47:10.731Z,96529.63
2022-10-16T14:49:39.517Z,96530.28
2022-10-16T14:52:12.612Z,96527.38
2022-10-16T14:54:43.668Z,96537.25
2022-10-16T14:57:19.549Z,96544.72
2022-10-16T14:59:49.005Z,96549.16
2022-10-16T15:02:23.539Z,96545.16
2022-10-16T15:04:52.996Z,96552.63
2022-10-16T15:07:21.896Z,96557.06
2022-10-16T15:09:51.983Z,96556.28
2022-10-16T15:12:20.836Z,96559.53
2022-10-16T15:14:49.748Z,96571.25
2022-10-16T15:17:20.082Z,96569.75
2022-10-16T15:19:50.466Z,96574.34
2022-10-16T15:22:18.592Z,96576.19
2022-10-16T15:24:47.225Z,96579.06
2022-10-16T15:27:17.590Z,96577.03
2022-10-16T15:29:46.161Z,96582.00
2022-10-16T15:32:14.398Z,96582.44
2022-10-16T15:34:43.677Z,96580.84
2022-10-16T15:37:13.088Z,96575.03
2022-10-16T15:39:41.529Z,96558.03
2022-10-16T15:42:09.993Z,96589.91
2022-10-16T15:44:39.673Z,96593.81
2022-10-16T15:47:07.769Z,96514.88
2022-10-16T15:49:35.938Z,96597.25
2022-10-16T15:52:04.692Z,96515.81
2022-10-16T15:54:33.062Z,96606.38
2022-10-16T15:57:03.521Z,96589.13
2022-10-16T15:59:31.972Z,96580.47
2022-10-16T16:02:01.586Z,96597.53
2022-10-16T16:04:43.481Z,96513.09
2022-10-16T16:07:13.816Z,96583.94
2022-10-16T16:09:43.433Z,96609.19
2022-10-16T16:12:11.842Z,96598.72
2022-10-16T16:14:39.863Z,96607.28
2022-10-16T16:17:09.320Z,96609.72
2022-10-16T16:19:37.619Z,96615.09
2022-10-16T16:22:09.453Z,96613.09
2022-10-16T16:24:40.592Z,96614.63
2022-10-16T16:27:09.000Z,96586.69
2022-10-16T16:29:37.257Z,96628.47
2022-10-16T16:32:05.637Z,96628.53
2022-10-16T16:34:36.543Z,96619.66
2022-10-16T16:37:05.160Z,96625.00
2022-10-16T16:39:33.440Z,96631.97
2022-10-16T16:42:02.284Z,96640.50
2022-10-16T16:44:30.464Z,96623.47
2022-10-16T16:46:58.466Z,96626.97
2022-10-16T16:49:26.554Z,96650.28
2022-10-16T16:51:56.387Z,96651.13
2022-10-16T16:54:24.553Z,96655.94
2022-10-16T16:56:52.678Z,96641.31
2022-10-16T16:59:23.050Z,96661.91
2022-10-16T17:01:56.694Z,96666.84
2022-10-16T17:04:25.786Z,96666.47
2022-10-16T17:06:56.532Z,96675.59
2022-10-16T17:09:25.241Z,96647.38
2022-10-16T17:11:53.411Z,96675.78
2022-10-16T17:14:22.102Z,96680.34
2022-10-16T17:16:50.184Z,96681.75
2022-10-16T17:19:20.596Z,96696.06
2022-10-16T17:21:50.727Z,96656.06
2022-10-16T17:24:21.435Z,96675.25
2022-10-16T17:26:50.117Z,96699.22
2022-10-16T17:29:19.299Z,96681.25
2022-10-16T17:31:49.877Z,96699.22
2022-10-16T17:34:18.032Z,96699.78
2022-10-16T17:36:47.339Z,96709.03
2022-10-16T17:39:18.173Z,96640.22
2022-10-16T17:41:48.392Z,96719.94
2022-10-16T17:44:20.155Z,96713.13
2022-10-16T17:46:49.011Z,96711.50
2022-10-16T17:49:17.987Z,96716.25
2022-10-16T17:51:46.562Z,96715.28
2022-10-16T17:54:15.730Z,96733.56
2022-10-16T17:56:43.862Z,96738.03
2022-10-16T17:59:13.530Z,96670.81
2022-10-16T18:01:45.622Z,96743.88
2022-10-16T18:04:16.328Z,96735.97
2022-10-16T18:06:46.155Z,96747.50
2022-10-16T18:09:18.252Z,96704.38
2022-10-16T18:11:46.609Z,96749.13
2022-10-16T18:14:17.995Z,96746.00
2022-10-16T18:16:46.148Z,96751.28
2022-10-16T18:19:14.455Z,96735.22
2022-10-16T18:21:43.243Z,96757.00
2022-10-16T18:24:12.290Z,96757.13
2022-10-16T18:26:40.923Z,96754.78
2022-10-16T18:29:09.477Z,96751.78
2022-10-16T18:31:42.765Z,96766.88
2022-10-16T18:34:11.192Z,96762.78
2022-10-16T18:36:39.800Z,96673.41
2022-10-16T18:39:14.323Z,96769.75
2022-10-16T18:41:44.833Z,96765.00
2022-10-16T18:44:13.873Z,96770.00
2022-10-16T18:46:43.986Z,96738.94
2022-10-16T18:49:13.149Z,96764.53
2022-10-16T18:51:42.963Z,96767.78
2022-10-16T18:54:13.038Z,96754.69
2022-10-16T18:56:41.401Z,96770.59
2022-10-16T18:59:10.495Z,96690.44
2022-10-16T19:01:40.127Z,96779.94
2022-10-16T19:04:12.689Z,96767.50
2022-10-16T19:06:43.007Z,96772.53
2022-10-16T19:09:11.981Z,96778.53
2022-10-16T19:11:41.757Z,96755.31
2022-10-16T19:14:10.179Z,96778.50
2022-10-16T19:16:39.003Z,96787.28
2022-10-16T19:19:09.462Z,96791.88
2022-10-16T19:21:39.990Z,96788.41
2022-10-16T19:24:09.069Z,96792.00
2022-10-16T19:26:39.619Z,96791.38
2022-10-16T19:29:10.738Z,96780.09
2022-10-16T19:31:39.169Z,96793.16
2022-10-16T19:34:09.822Z,96802.69
2022-10-16T19:36:39.309Z,96797.53
2022-10-16T19:39:10.050Z,96807.41
2022-10-16T19:41:39.001Z,96813.84
2022-10-16T19:44:08.479Z,96811.53
2022-10-16T19:46:37.082Z,96813.16
2022-10-16T19:49:06.931Z,96809.19
2022-10-16T19:51:36.941Z,96808.06
2022-10-16T19:54:07.010Z,96829.47
2022-10-16T19:56:35.988Z,96804.06
2022-10-16T19:59:04.723Z,96826.44
2022-10-16T20:01:34.074Z,96835.13
2022-10-16T20:04:06.163Z,96825.63
2022-10-16T20:06:34.401Z,96818.41
2022-10-16T20:09:04.424Z,96810.47
2022-10-16T20:11:34.672Z,96835.28
2022-10-16T20:14:03.866Z,96840.06
2022-10-16T20:16:32.475Z,96846.50
2022-10-16T20:19:01.215Z,96848.72
2022-10-16T20:21:31.049Z,96830.81
2022-10-16T20:24:01.155Z,96830.16
2022-10-16T20:26:30.650Z,96845.56
2022-10-16T20:28:58.849Z,96833.66
2022-10-16T20:31:28.837Z,96840.91
2022-10-16T20:33:57.997Z,96863.50
2022-10-16T20:36:30.587Z,96843.97
2022-10-16T20:38:58.867Z,96846.88
2022-10-16T20:41:26.907Z,96862.56
2022-10-16T20:43:56.869Z,96862.56
2022-10-16T20:46:26.677Z,96844.53
2022-10-16T20:48:55.740Z,96862.66
2022-10-16T20:51:26.157Z,96858.22
2022-10-16T20:53:56.680Z,96863.97
2022-10-16T20:56:25.398Z,96867.94
2022-10-16T20:58:53.738Z,96880.34
2022-10-16T21:01:25.056Z,96862.56
2022-10-16T21:03:54.226Z,96861.75
2022-10-16T21:06:22.611Z,96868.28
2022-10-16T21:08:51.145Z,96874.63
2022-10-16T21:11:20.724Z,96877.50
2022-10-16T21:13:49.158Z,96844.63
2022-10-16T21:16:17.183Z,96783.91
2022-10-16T21:18:46.647Z,96872.28
2022-10-16T21:21:22.165Z,96871.44
2022-10-16T21:23:50.412Z,96874.16
2022-10-16T21:26:21.026Z,96862.78
2022-10-16T21:28:49.061Z,96878.59
2022-10-16T21:31:19.343Z,96882.09
2022-10-16T21:33:49.501Z,96868.50
2022-10-16T21:36:19.347Z,96885.72
2022-10-16T21:38:47.965Z,96875.75
2022-10-16T21:41:17.741Z,96878.19
2022-10-16T21:43:45.884Z,96879.47
2022-10-16T21:46:14.242Z,96884.97
2022-10-16T21:48:43.178Z,96881.44
2022-10-16T21:51:13.199Z,96883.66
2022-10-16T21:53:41.578Z,96877.78
2022-10-16T21:56:14.254Z,96884.59
2022-10-16T21:58:42.369Z,96873.13
2022-10-16T22:01:12.134Z,96887.16
2022-10-16T22:03:40.200Z,96885.63
2022-10-16T22:06:09.541Z,96784.53
2022-10-16T22:08:39.874Z,96890.63
2022-10-16T22:11:09.256Z,96869.50
2022-10-16T22:13:37.764Z,96877.94
2022-10-16T22:16:06.285Z,96882.69
2022-10-16T22:18:35.658Z,96798.56
2022-10-16T22:21:04.147Z,96881.31
2022-10-16T22:23:32.367Z,96857.66
2022-10-16T22:26:02.434Z,96884.00
2022-10-16T22:28:30.533Z,96866.91
2022-10-16T22:31:02.193Z,96885.38
2022-10-16T22:33:30.340Z,96874.00
2022-10-16T22:36:00.837Z,96888.88
2022-10-16T22:38:29.968Z,96873.31
2022-10-16T22:41:04.292Z,96889.81
2022-10-16T22:43:32.414Z,96869.22
2022-10-16T22:46:04.046Z,96887.13
2022-10-16T22:48:32.112Z,96884.66
2022-10-16T22:51:00.128Z,96852.09
2022-10-16T22:53:28.162Z,96894.47
2022-10-16T22:55:56.220Z,96878.66
2022-10-16T22:58:25.834Z,96892.00
2022-10-16T23:00:54.147Z,96893.03
2022-10-16T23:03:22.374Z,96889.19
2022-10-16T23:05:50.376Z,96857.41
2022-10-16T23:08:18.451Z,96892.88
2022-10-16T23:10:49.656Z,96893.09
2022-10-16T23:13:17.863Z,96879.47
2022-10-16T23:15:47.232Z,96894.47
2022-10-16T23:18:15.323Z,96881.88
2022-10-16T23:20:44.021Z,96902.00
2022-10-16T23:23:12.087Z,96898.50
2022-10-16T23:25:47.025Z,96898.25
2022-10-16T23:30:49.751Z,96899.88
2022-10-16T23:33:19.382Z,96900.88
2022-10-16T23:35:47.637Z,96904.28
2022-10-16T23:38:15.690Z,96905.41
2022-10-16T23:40:44.823Z,96894.38
2022-10-16T23:43:12.938Z,96881.47
2022-10-16T23:45:40.993Z,96896.94
2022-10-16T23:48:10.370Z,96899.72
2022-10-16T23:50:38.394Z,96896.66
2022-10-16T23:53:09.412Z,96883.53
2022-10-16T23:55:38.541Z,96891.13
2022-10-16T23:58:06.548Z,96882.09
